Naikai2 — JD2433 — position and weather

sailwx.info

Track history (hours):
 
Tides and Currents Weather Stations Pressure Air Temp Water Temp Dewpoint Dewpoint Depression Visibility Wind Speed Wind Dir Waves Ship Positions

Naikai2

Last reported at 2016-Dec-05 19:32 UTC. Time now 2016-Dec-06 21:51 UTC.
Position N 34°38' E 135°10'.

Length 28 m; draft 2.2 m.

Type: Other ship. MMSI: 431000283.

Date/timePositionNaut miles runAvg speedWind from/ knotsBaromVisibWave heightAir tempDewpointWater temp
2016-Dec-05 19:32N 34°38' E 135°10'8 8.3
2016-Dec-05 18:33N 34°37' E 134°60'7 7.4
2016-Dec-05 17:33N 34°38' E 135°09'2 1.7
2016-Dec-05 16:34N 34°39' E 135°10'1 0.1
2016-Dec-05 06:33N 34°38' E 135°10'1414.1
2016-Dec-05 05:34N 34°33' E 135°26'4 3.5
2016-Dec-05 04:32N 34°33' E 135°22'5 5.1
2016-Dec-05 03:33N 34°36' E 135°17'6 5.9
2016-Dec-05 02:33N 34°39' E 135°11'3 0.1
2016-Dec-04 08:34N 34°36' E 135°09'1514.9
2016-Dec-04 07:32N 34°23' E 135°02'2 1.4
2016-Dec-04 06:22N 34°22' E 134°60'1114.2
2016-Dec-04 05:33N 34°30' E 135°10'1110.7
2016-Dec-04 04:33N 34°33' E 135°22'3 2.6
2016-Dec-04 03:33N 34°31' E 135°24'0 0.0
2016-Dec-04 01:22N 34°31' E 135°24'3 3.5
2016-Dec-04 00:30N 34°33' E 135°21'4 4.6
2016-Dec-03 23:33N 34°34' E 135°16'9 9.4
2016-Dec-03 22:33N 34°36' E 135°05'3 3.0
2016-Dec-03 21:33N 34°37' E 135°02'7 6.5
2016-Dec-03 20:33N 34°38' E 135°10'7 0.6
2016-Dec-03 09:33N 34°32' E 135°07'1714.0
2016-Dec-03 08:21N 34°16' E 134°59'810.3
2016-Dec-03 07:33N 34°24' E 135°03'1615.6
2016-Dec-03 06:33N 34°33' E 135°18'5 4.7
2016-Dec-03 05:32N 34°34' E 135°24'1 0.9
2016-Dec-03 04:33N 34°33' E 135°25'1 0.8
2016-Dec-03 03:33N 34°33' E 135°24'7 6.9
2016-Dec-03 02:33N 34°32' E 135°16'2311.3
2016-Dec-03 00:33N 34°14' E 134°59'9 8.0
2016-Dec-02 23:25N 34°23' E 135°00'1213.6
2016-Dec-02 22:33N 34°34' E 135°06'7 0.4
2016-Dec-02 01:33N 34°40' E 135°11'9 9.1
2016-Dec-02 00:33N 34°36' E 135°21'3 2.4
2016-Dec-01 23:30N 34°33' E 135°20'1111.7
2016-Dec-01 22:32N 34°27' E 135°09'1312.5
2016-Dec-01 21:30N 34°17' E 134°59'4 4.6
2016-Dec-01 20:33N 34°13' E 135°00'1313.5
2016-Dec-01 19:33N 34°26' E 135°02'1414.1
2016-Dec-01 18:33N 34°38' E 135°10'  
2016-Nov-29 04:33N 34°37' E 135°10'20 9.9
2016-Nov-29 02:33N 34°19' E 134°59'1313.2
2016-Nov-29 01:32N 34°29' E 135°10'1212.0
2016-Nov-29 00:34N 34°33' E 135°23'3 2.5
2016-Nov-28 23:33N 34°35' E 135°21'10 9.7
2016-Nov-28 22:33N 34°39' E 135°10'5 0.3
2016-Nov-28 05:33N 34°35' E 135°06'5 4.7
2016-Nov-28 04:30N 34°37' E 135°00'0 0.4
2016-Nov-28 03:33N 34°37' E 134°60'5 5.5
2016-Nov-28 02:33N 34°35' E 135°06'7 6.6
2016-Nov-28 01:33N 34°39' E 135°12'0 0.4
2016-Nov-28 00:33N 34°40' E 135°12'1212.2
2016-Nov-27 23:33N 34°34' E 135°24'2 1.7
2016-Nov-27 22:33N 34°33' E 135°22'1110.9
2016-Nov-27 21:33N 34°29' E 135°10'1613.2
2016-Nov-27 20:23N 34°16' E 134°59'3 4.0
2016-Nov-27 19:33N 34°13' E 135°00'18 1.3
2016-Nov-27 05:33N 34°31' E 135°01'8 2.0
2016-Nov-27 01:33N 34°35' E 134°52'1010.3
2016-Nov-27 00:33N 34°36' E 135°05'5 4.7
2016-Nov-26 23:33N 34°31' E 135°08'1812.3
2016-Nov-26 22:07N 34°15' E 134°59'1 2.5
2016-Nov-26 21:31N 34°14' E 134°60'1212.6
2016-Nov-26 20:33N 34°26' E 135°02'1414.1
2016-Nov-26 19:33N 34°39' E 135°10'1 0.1
2016-Nov-26 06:14N 34°38' E 135°11'1014.5
2016-Nov-26 05:33N 34°34' E 135°22'1 1.1
2016-Nov-26 04:29N 34°33' E 135°23'5 5.7
2016-Nov-26 03:33N 34°36' E 135°17'7 6.7
2016-Nov-26 02:34N 34°40' E 135°11'  
Track history (hours):
 
Tides and Currents Weather Stations Pressure Air Temp Water Temp Dewpoint Dewpoint Depression Visibility Wind Speed Wind Dir Waves Ship Positions

Naikai2

Last reported at 2016-Dec-05 19:32 UTC. Time now 2016-Dec-06 21:51 UTC.
Position N 34°38' E 135°10'.

Length 28 m; draft 2.2 m.

Type: Other ship. MMSI: 431000283.

Date/timePositionNaut miles runAvg speedWind from/ knotsBaromVisibWave heightAir tempDewpointWater temp
2016-Dec-05 19:32N 34°38' E 135°10'8 8.3
2016-Dec-05 18:33N 34°37' E 134°60'7 7.4
2016-Dec-05 17:33N 34°38' E 135°09'2 1.7
2016-Dec-05 16:34N 34°39' E 135°10'1 0.1
2016-Dec-05 06:33N 34°38' E 135°10'1414.1
2016-Dec-05 05:34N 34°33' E 135°26'4 3.5
2016-Dec-05 04:32N 34°33' E 135°22'5 5.1
2016-Dec-05 03:33N 34°36' E 135°17'6 5.9
2016-Dec-05 02:33N 34°39' E 135°11'3 0.1
2016-Dec-04 08:34N 34°36' E 135°09'1514.9
2016-Dec-04 07:32N 34°23' E 135°02'2 1.4
2016-Dec-04 06:22N 34°22' E 134°60'1114.2
2016-Dec-04 05:33N 34°30' E 135°10'1110.7
2016-Dec-04 04:33N 34°33' E 135°22'3 2.6
2016-Dec-04 03:33N 34°31' E 135°24'0 0.0
2016-Dec-04 01:22N 34°31' E 135°24'3 3.5
2016-Dec-04 00:30N 34°33' E 135°21'4 4.6
2016-Dec-03 23:33N 34°34' E 135°16'9 9.4
2016-Dec-03 22:33N 34°36' E 135°05'3 3.0
2016-Dec-03 21:33N 34°37' E 135°02'7 6.5
2016-Dec-03 20:33N 34°38' E 135°10'7 0.6
2016-Dec-03 09:33N 34°32' E 135°07'1714.0
2016-Dec-03 08:21N 34°16' E 134°59'810.3
2016-Dec-03 07:33N 34°24' E 135°03'1615.6
2016-Dec-03 06:33N 34°33' E 135°18'5 4.7
2016-Dec-03 05:32N 34°34' E 135°24'1 0.9
2016-Dec-03 04:33N 34°33' E 135°25'1 0.8
2016-Dec-03 03:33N 34°33' E 135°24'7 6.9
2016-Dec-03 02:33N 34°32' E 135°16'2311.3
2016-Dec-03 00:33N 34°14' E 134°59'9 8.0
2016-Dec-02 23:25N 34°23' E 135°00'1213.6
2016-Dec-02 22:33N 34°34' E 135°06'7 0.4
2016-Dec-02 01:33N 34°40' E 135°11'9 9.1
2016-Dec-02 00:33N 34°36' E 135°21'3 2.4
2016-Dec-01 23:30N 34°33' E 135°20'1111.7
2016-Dec-01 22:32N 34°27' E 135°09'1312.5
2016-Dec-01 21:30N 34°17' E 134°59'4 4.6
2016-Dec-01 20:33N 34°13' E 135°00'1313.5
2016-Dec-01 19:33N 34°26' E 135°02'1414.1
2016-Dec-01 18:33N 34°38' E 135°10'  
2016-Nov-29 04:33N 34°37' E 135°10'20 9.9
2016-Nov-29 02:33N 34°19' E 134°59'1313.2
2016-Nov-29 01:32N 34°29' E 135°10'1212.0
2016-Nov-29 00:34N 34°33' E 135°23'3 2.5
2016-Nov-28 23:33N 34°35' E 135°21'10 9.7
2016-Nov-28 22:33N 34°39' E 135°10'5 0.3
2016-Nov-28 05:33N 34°35' E 135°06'5 4.7
2016-Nov-28 04:30N 34°37' E 135°00'0 0.4
2016-Nov-28 03:33N 34°37' E 134°60'5 5.5
2016-Nov-28 02:33N 34°35' E 135°06'7 6.6
2016-Nov-28 01:33N 34°39' E 135°12'0 0.4
2016-Nov-28 00:33N 34°40' E 135°12'1212.2
2016-Nov-27 23:33N 34°34' E 135°24'2 1.7
2016-Nov-27 22:33N 34°33' E 135°22'1110.9
2016-Nov-27 21:33N 34°29' E 135°10'1613.2
2016-Nov-27 20:23N 34°16' E 134°59'3 4.0
2016-Nov-27 19:33N 34°13' E 135°00'18 1.3
2016-Nov-27 05:33N 34°31' E 135°01'8 2.0
2016-Nov-27 01:33N 34°35' E 134°52'1010.3
2016-Nov-27 00:33N 34°36' E 135°05'5 4.7
2016-Nov-26 23:33N 34°31' E 135°08'1812.3
2016-Nov-26 22:07N 34°15' E 134°59'1 2.5
2016-Nov-26 21:31N 34°14' E 134°60'1212.6
2016-Nov-26 20:33N 34°26' E 135°02'1414.1
2016-Nov-26 19:33N 34°39' E 135°10'1 0.1
2016-Nov-26 06:14N 34°38' E 135°11'1014.5
2016-Nov-26 05:33N 34°34' E 135°22'1 1.1
2016-Nov-26 04:29N 34°33' E 135°23'5 5.7
2016-Nov-26 03:33N 34°36' E 135°17'7 6.7
2016-Nov-26 02:34N 34°40' E 135°11'  

Dump ship's entire track history